00:37
Airports
History
Links
Donate
Help keep this website running!
PayPal
Bitcoin
Information on this page is community maintained and may be outdated or inaccurate and is intended for reference only or PC simulator navigating.
Always use approved charts for navigating.
ENEV
EVENES
EVENES (ENEV)
Nordland, Norway (8536)
(C)
Lat/Lng:68° 29' 28.68" N / 16° 40' 41.19" E
68.4913 / 16.678109
Elevation:84'ft 26mMSL
ID / ICAO:ENEV
Runways:1
Longest:(17-35) 2,800.3m 9,187ft Asphalt
Controlled:Yes
Distance To
Airport ID:
Airport Radio Frequencies
ATIS: 126.02
Tower: 118, 120.1
Nearby VORs <50NM
Nearby NDBs
METARUpdated 07-25-17 00:20 GMT
Altimeter: 30.09
Visibility: 6.2 statute miles
Wind: 3 knots (360°)
Temp: 10°c 50°f
Humidity: 100.0%

METAR: ENEV 250020Z AUTO 36003KT 9999 NCD 10/10 Q1019 RMK WIND 1400FT 09004KT

(Powered by phpweather)
Runway 17 / 35
Dimensions:2800.3 x 45.1m 9187' x 148'ft
Surface:Asphalt
Edge Lights:High intensity
Runway 17 [A]Runway 35 [B]
Heading:177°TH 357°TH
Lat:
Lng:
68° 30' 14.06"N
16° 40' 36"E
68° 28' 43.3"N
16° 40' 46.38"E
ALS:RAILMALS
User Notes and Comments
Google Map
Nearby Airports
(U) Narvik Framnes 18.4 NM
ENNK (WX) E 101°
(C) Stokmarknes Skagen 42.3 NM
ENSK W 278°
(U) Svolvaer Helle 54.0 NM
ENSH (WX) WSW 251°
4 Engeloy 56.4 NM
ENEN SW 230°
(C) ANDOYA 57.2 NM
ENAN NNW 346°
(C) Bardufoss 60.7 NM
ENDU (WX) NE 50°
(U) Leknes 81.7 NM
ENLK (WX) WSW 253°
VFR Chart
Flight Planning at SkyVector.com